Time;durP1;ratioP1;P1;durP2;ratioP2;P2;SDS_P1;SDS_P2;PMS_P1;PMS_P2;Temp;Humidity;BMP_temperature;BMP_pressure;BME280_temperature;BME280_humidity;BME280_pressure;Samples;Min_cycle;Max_cycle;Signal;HPM_P1;HPM_P2
2022/07/24 00:01:06;;;;;;;7.12;4.08;;;;;;;17.79;83.00;100960.33;1964438;72;21013;-62
2022/07/24 00:03:35;;;;;;;7.58;4.40;;;;;;;17.77;83.10;100964.91;1964719;73;21073;-62
2022/07/24 00:06:04;;;;;;;6.87;4.15;;;;;;;17.73;82.93;100967.77;1964555;72;21001;-62
2022/07/24 00:08:33;;;;;;;7.85;4.45;;;;;;;17.70;83.08;100962.63;1964431;73;21108;-62
2022/07/24 00:11:01;;;;;;;8.08;4.08;;;;;;;17.69;82.81;100963.59;1964425;73;21464;-62
2022/07/24 00:13:30;;;;;;;13.75;4.08;;;;;;;17.67;82.83;100962.84;1964436;73;21054;-62
2022/07/24 00:15:59;;;;;;;6.50;3.98;;;;;;;17.67;82.83;100960.64;1964697;73;21146;-62
2022/07/24 00:18:29;;;;;;;6.80;4.00;;;;;;;17.67;83.24;100960.19;1964428;73;21057;-62
2022/07/24 00:20:57;;;;;;;7.83;4.37;;;;;;;17.64;83.10;100955.05;1964465;73;21022;-62
2022/07/24 00:23:26;;;;;;;9.55;4.35;;;;;;;17.63;83.12;100962.68;1964444;72;21034;-63
2022/07/24 00:25:55;;;;;;;20.90;5.25;;;;;;;17.63;83.63;100958.69;1964586;72;21083;-62
2022/07/24 00:28:24;;;;;;;13.60;4.25;;;;;;;17.62;83.92;100962.28;1964441;73;20994;-62
2022/07/24 00:30:52;;;;;;;23.62;5.03;;;;;;;17.61;83.84;100960.56;1999694;71;21481;-63
2022/07/24 00:33:21;;;;;;;22.10;5.70;;;;;;;17.58;83.83;100960.78;2004383;71;21100;-62
2022/07/24 00:35:50;;;;;;;18.55;4.92;;;;;;;17.55;83.88;100958.31;2004489;71;21062;-63
2022/07/24 00:38:20;;;;;;;19.40;5.10;;;;;;;17.51;83.78;100959.47;2004454;71;21050;-63
2022/07/24 00:40:49;;;;;;;13.93;5.10;;;;;;;17.47;83.68;100961.96;2004466;71;21066;-63
2022/07/24 00:43:18;;;;;;;24.02;5.97;;;;;;;17.42;83.48;100966.72;2004404;71;21022;-62
2022/07/24 00:45:48;;;;;;;20.15;5.83;;;;;;;17.36;83.46;100962.16;2004524;71;21080;-62
2022/07/24 00:48:16;;;;;;;13.70;5.17;;;;;;;17.32;83.79;100960.66;2004495;71;21027;-63
2022/07/24 00:50:45;;;;;;;11.45;5.17;;;;;;;17.29;84.07;100960.84;2004360;71;21011;-63
2022/07/24 00:53:14;;;;;;;18.10;5.25;;;;;;;17.27;83.89;100960.09;2004349;71;20983;-63
2022/07/24 00:55:44;;;;;;;8.25;5.05;;;;;;;17.25;83.71;100954.02;2004480;71;21531;-63
2022/07/24 00:58:13;;;;;;;8.68;4.65;;;;;;;17.22;83.66;100956.86;2004419;71;21019;-63
2022/07/24 01:00:42;;;;;;;8.20;4.78;;;;;;;17.17;83.48;100953.62;2004375;71;21018;-62
2022/07/24 01:03:10;;;;;;;13.80;4.47;;;;;;;17.15;83.49;100953.75;2004387;71;21082;-63
2022/07/24 01:05:39;;;;;;;12.03;5.45;;;;;;;17.13;83.56;100954.78;2004384;71;21128;-62
2022/07/24 01:08:09;;;;;;;17.35;6.42;;;;;;;17.12;83.74;100962.39;2004363;71;21015;-62
2022/07/24 01:10:38;;;;;;;27.87;10.20;;;;;;;17.10;84.09;100968.30;2004374;71;20999;-62
2022/07/24 01:13:07;;;;;;;33.90;10.00;;;;;;;17.09;84.21;100965.23;2004365;71;21080;-62
2022/07/24 01:15:35;;;;;;;15.50;5.55;;;;;;;17.09;84.23;100967.41;2004309;71;21460;-63
2022/07/24 01:18:04;;;;;;;9.75;5.55;;;;;;;17.08;84.16;100967.05;2004299;71;21041;-62
2022/07/24 01:20:38;;;;;;;10.40;4.75;;;;;;;17.06;84.13;100964.09;2004425;71;21031;-62
2022/07/24 01:23:07;;;;;;;9.55;4.90;;;;;;;17.03;84.28;100969.14;2004490;71;21084;-63
2022/07/24 01:25:37;;;;;;;9.93;5.17;;;;;;;17.02;84.69;100965.24;2004274;71;21132;-63
2022/07/24 01:28:05;;;;;;;15.28;4.33;;;;;;;17.03;84.91;100964.30;2004370;71;21457;-63
2022/07/24 01:30:34;;;;;;;8.00;3.90;;;;;;;17.03;84.86;100965.15;2004271;71;21124;-62
2022/07/24 01:33:03;;;;;;;7.12;3.87;;;;;;;17.06;84.84;100969.41;2004448;71;21484;-62
2022/07/24 01:35:32;;;;;;;10.05;5.33;;;;;;;17.08;84.59;100969.72;2004289;71;21023;-62
2022/07/24 01:38:02;;;;;;;8.33;4.47;;;;;;;17.11;84.59;100972.64;2004358;71;21473;-62
2022/07/24 01:40:32;;;;;;;9.35;4.67;;;;;;;17.15;84.54;100972.83;1988826;71;21062;-63
2022/07/24 01:43:01;;;;;;;7.20;4.78;;;;;;;17.17;84.50;100980.23;2004430;71;21144;-62
2022/07/24 01:45:30;;;;;;;8.93;3.75;;;;;;;17.19;84.47;100975.70;2004286;71;21500;-62
2022/07/24 01:47:59;;;;;;;7.35;3.95;;;;;;;17.22;84.35;100978.63;2004302;71;21019;-62
2022/07/24 01:50:28;;;;;;;8.50;3.77;;;;;;;17.23;84.13;100971.03;2004291;71;21018;-62
2022/07/24 01:52:57;;;;;;;7.03;4.05;;;;;;;17.23;84.01;100981.20;2004494;71;21088;-62
2022/07/24 01:55:26;;;;;;;11.40;5.22;;;;;;;17.23;84.03;100970.55;2004619;71;21117;-63
2022/07/24 01:57:55;;;;;;;10.30;5.75;;;;;;;17.23;83.94;100977.69;2004528;71;21026;-62
2022/07/24 02:00:24;;;;;;;11.03;4.53;;;;;;;17.22;83.97;100976.81;2004566;71;20995;-63
2022/07/24 02:02:53;;;;;;;5.25;3.98;;;;;;;17.21;83.91;100982.22;2004449;71;21019;-63
2022/07/24 02:05:22;;;;;;;11.25;3.72;;;;;;;17.21;83.88;100978.23;2004449;71;20987;-62
2022/07/24 02:07:58;;;;;;;5.62;3.87;;;;;;;17.22;83.83;100975.48;2004178;71;21015;-62
2022/07/24 02:10:28;;;;;;;7.40;3.90;;;;;;;17.22;83.71;100985.28;2004426;71;21080;-61
2022/07/24 02:12:58;;;;;;;7.17;4.45;;;;;;;17.20;83.64;100980.05;2004445;71;21628;-62
2022/07/24 02:15:27;;;;;;;5.53;2.77;;;;;;;17.19;83.43;100982.34;2004450;71;21084;-62
2022/07/24 02:17:58;;;;;;;6.25;4.22;;;;;;;17.20;83.41;100980.05;2004562;71;21441;-62
2022/07/24 02:20:29;;;;;;;6.33;3.65;;;;;;;17.20;83.19;100980.05;2004505;71;21544;-62
2022/07/24 02:22:57;;;;;;;7.22;3.62;;;;;;;17.18;83.07;100979.30;2004558;71;21461;-62
2022/07/24 02:25:26;;;;;;;7.80;3.52;;;;;;;17.14;83.16;100980.45;2004482;71;21026;-62
2022/07/24 02:27:55;;;;;;;9.60;5.42;;;;;;;17.13;83.19;100980.05;2004453;71;21018;-62
2022/07/24 02:30:24;;;;;;;6.87;3.52;;;;;;;17.14;83.27;100977.78;2004463;71;21023;-62
2022/07/24 02:32:53;;;;;;;7.00;3.90;;;;;;;17.18;83.43;100980.63;2004348;71;21179;-62
2022/07/24 02:35:22;;;;;;;5.55;3.85;;;;;;;17.27;83.53;100978.71;2004541;71;21019;-61
2022/07/24 02:37:52;;;;;;;7.92;3.62;;;;;;;17.39;83.43;100979.73;2004503;71;21147;-61
2022/07/24 02:40:21;;;;;;;5.37;3.20;;;;;;;17.51;83.34;100984.76;1990726;71;21112;-61
2022/07/24 02:42:50;;;;;;;8.08;3.62;;;;;;;17.62;83.17;100986.73;2004555;71;21316;-61
2022/07/24 02:45:19;;;;;;;7.70;3.30;;;;;;;17.72;83.10;100988.70;2004330;71;21505;-61
2022/07/24 02:47:56;;;;;;;6.65;3.02;;;;;;;17.86;83.08;100989.16;2004655;71;20998;-61
2022/07/24 02:50:27;;;;;;;6.28;3.10;;;;;;;18.00;83.01;100982.05;2004413;71;21018;-62
2022/07/24 02:52:56;;;;;;;4.30;2.77;;;;;;;18.08;82.65;100980.59;2004540;71;21084;-62
2022/07/24 02:55:27;;;;;;;3.92;2.90;;;;;;;18.17;82.25;100971.59;2004439;71;21026;-62
2022/07/24 02:57:56;;;;;;;5.65;2.50;;;;;;;18.29;82.07;100967.62;2004329;71;21087;-62
2022/07/24 03:00:25;;;;;;;6.22;2.72;;;;;;;18.43;81.95;100966.69;2004546;71;21092;-62
2022/07/24 03:02:53;;;;;;;5.70;2.37;;;;;;;18.58;81.54;100961.27;2004416;71;21026;-62
2022/07/24 03:05:22;;;;;;;4.22;2.90;;;;;;;18.83;80.87;100964.42;2004566;71;21493;-62
2022/07/24 03:07:51;;;;;;;9.20;3.20;;;;;;;19.13;79.26;100970.77;2004557;71;21029;-62
2022/07/24 03:10:20;;;;;;;6.00;3.10;;;;;;;19.26;77.97;100970.25;2004432;71;21519;-63
2022/07/24 03:12:48;;;;;;;3.67;2.33;;;;;;;19.32;77.32;100961.43;2004478;71;21001;-62
2022/07/24 03:15:17;;;;;;;4.15;2.67;;;;;;;19.42;76.81;100963.78;2004532;71;20983;-62
2022/07/24 03:17:57;;;;;;;8.08;2.67;;;;;;;19.52;76.24;100959.98;2004403;71;21513;-62
2022/07/24 03:20:30;;;;;;;4.58;2.50;;;;;;;19.59;75.92;100965.25;2004516;71;21449;-62
2022/07/24 03:22:58;;;;;;;;;;;;;;;19.57;75.99;100976.50;2007340;71;21082;-62
2022/07/24 03:25:26;;;;;;;4.90;2.55;;;;;;;19.62;76.18;100971.22;2004447;71;20138;-61
2022/07/24 03:27:55;;;;;;;4.25;2.22;;;;;;;19.68;76.63;100969.42;2004527;71;21465;-61
2022/07/24 03:30:23;;;;;;;6.97;2.02;;;;;;;19.82;77.02;100966.23;2004399;71;21050;-61
2022/07/24 03:32:52;;;;;;;3.22;2.20;;;;;;;19.92;76.59;100964.59;2006739;71;21501;-61
2022/07/24 03:35:21;;;;;;;6.90;2.85;;;;;;;19.98;76.15;100962.78;2007071;70;21054;-61
2022/07/24 03:37:49;;;;;;;5.87;2.50;;;;;;;20.03;75.51;100961.12;2007339;71;21026;-61
2022/07/24 03:40:18;;;;;;;3.60;2.17;;;;;;;20.11;75.00;100967.22;2007569;70;21088;-61
2022/07/24 03:42:47;;;;;;;3.92;2.25;;;;;;;20.22;75.05;100961.91;2007228;71;21011;-61
2022/07/24 03:45:16;;;;;;;4.65;2.25;;;;;;;20.30;74.74;100970.17;2007347;71;21080;-61
2022/07/24 03:47:46;;;;;;;3.90;2.35;;;;;;;20.48;74.91;100967.08;2007111;71;21022;-62
2022/07/24 03:50:14;;;;;;;4.37;2.30;;;;;;;20.65;74.93;100971.14;2007176;71;21054;-62
2022/07/24 03:52:43;;;;;;;6.90;2.25;;;;;;;20.83;74.88;100967.88;2007307;71;21022;-61
2022/07/24 03:55:11;;;;;;;2.83;2.12;;;;;;;20.94;74.00;100971.54;2007168;71;21068;-62
2022/07/24 03:57:40;;;;;;;2.95;2.12;;;;;;;21.05;73.61;100965.34;2007328;71;20994;-62
2022/07/24 04:00:10;;;;;;;3.40;2.08;;;;;;;21.13;73.08;100968.23;2007219;71;21093;-62
2022/07/24 04:02:42;;;;;;;5.55;2.35;;;;;;;21.33;73.03;100969.31;2007441;71;21111;-62
2022/07/24 04:05:13;;;;;;;2.77;1.82;;;;;;;21.50;72.70;100970.16;2007222;71;21053;-62
2022/07/24 04:07:41;;;;;;;2.75;1.82;;;;;;;21.72;72.34;100975.10;2007306;71;21022;-62
2022/07/24 04:10:11;;;;;;;2.35;1.57;;;;;;;22.00;72.07;100974.15;2007204;71;21007;-62
2022/07/24 04:12:40;;;;;;;5.10;2.00;;;;;;;22.29;71.83;100973.07;2007331;71;21481;-62
2022/07/24 04:15:09;;;;;;;3.75;2.30;;;;;;;22.64;71.46;100967.36;2007170;71;21081;-62
2022/07/24 04:17:43;;;;;;;2.30;1.57;;;;;;;22.95;70.67;100968.72;2007309;71;20991;-62
2022/07/24 04:20:12;;;;;;;4.25;1.98;;;;;;;23.29;70.09;100976.49;2007310;71;20991;-60
2022/07/24 04:22:41;;;;;;;2.22;1.55;;;;;;;23.72;69.52;100971.30;2007162;71;21066;-60
2022/07/24 04:25:10;;;;;;;2.02;1.75;;;;;;;24.15;68.95;100969.22;2007298;71;20994;-60
2022/07/24 04:27:38;;;;;;;4.55;1.92;;;;;;;24.52;68.22;100973.36;2007218;71;21078;-61
2022/07/24 04:30:08;;;;;;;4.65;1.55;;;;;;;24.87;67.70;100972.34;2007159;71;21007;-60
2022/07/24 04:32:37;;;;;;;2.42;1.52;;;;;;;25.20;67.09;100972.27;1989322;71;21045;-61
2022/07/24 04:35:07;;;;;;;5.30;2.12;;;;;;;25.54;66.36;100970.32;1964442;73;21026;-61
2022/07/24 04:37:35;;;;;;;1.82;1.60;;;;;;;25.89;65.71;100968.66;1964544;72;21018;-60
2022/07/24 04:40:04;;;;;;;6.70;1.70;;;;;;;26.21;65.03;100964.09;1964355;73;21084;-61
2022/07/24 04:42:34;;;;;;;3.62;1.62;;;;;;;26.37;63.84;100964.21;1964580;73;21013;-60
2022/07/24 04:45:04;;;;;;;3.33;1.70;;;;;;;26.56;63.16;100966.36;1964421;73;21002;-62
2022/07/24 04:47:33;;;;;;;1.85;1.67;;;;;;;26.81;62.60;100966.02;1964688;73;21026;-62
2022/07/24 04:50:02;;;;;;;2.77;1.50;;;;;;;27.05;61.81;100967.98;1964565;72;21111;-62
2022/07/24 04:52:31;;;;;;;2.85;1.70;;;;;;;27.11;60.10;100967.84;1964300;73;21064;-63
2022/07/24 04:55:00;;;;;;;3.17;1.50;;;;;;;27.21;59.94;100968.57;1964554;73;21022;-62
2022/07/24 04:57:28;;;;;;;4.17;2.05;;;;;;;27.44;59.82;100962.59;1964383;72;21072;-62
2022/07/24 04:59:57;;;;;;;3.50;1.77;;;;;;;27.71;59.39;100962.82;1964384;72;21018;-62
2022/07/24 05:02:26;;;;;;;3.08;1.80;;;;;;;28.00;58.84;100960.16;1964531;73;21010;-64
2022/07/24 05:04:54;;;;;;;2.52;1.47;;;;;;;28.31;58.39;100963.02;1964351;72;21010;-62
2022/07/24 05:07:23;;;;;;;3.42;1.60;;;;;;;28.65;57.84;100968.77;1964514;72;21633;-62
2022/07/24 05:09:52;;;;;;;2.60;1.62;;;;;;;28.93;57.35;100975.13;1964544;73;21065;-62
2022/07/24 05:12:20;;;;;;;4.22;1.80;;;;;;;29.14;56.60;100975.42;1964412;72;21022;-62
2022/07/24 05:14:49;;;;;;;2.20;1.70;;;;;;;29.36;55.87;100979.19;1964549;72;21499;-62
2022/07/24 05:17:17;;;;;;;4.00;1.50;;;;;;;29.50;54.96;100983.03;1964518;73;21071;-63
2022/07/24 05:19:46;;;;;;;3.22;1.70;;;;;;;29.69;54.72;100987.14;1964314;73;21139;-62
2022/07/24 05:22:14;;;;;;;3.67;1.60;;;;;;;29.91;54.22;100985.50;1964538;73;21087;-62
2022/07/24 05:24:43;;;;;;;3.12;1.75;;;;;;;30.20;53.68;100985.28;1964426;73;21005;-62
2022/07/24 05:27:11;;;;;;;2.50;1.70;;;;;;;30.39;53.33;100972.55;1964593;73;21573;-62
2022/07/24 05:29:41;;;;;;;2.65;1.30;;;;;;;30.49;52.22;100976.88;1964683;72;21010;-62
2022/07/24 05:32:09;;;;;;;2.05;1.60;;;;;;;30.62;51.56;100977.59;1964527;72;21103;-62
2022/07/24 05:34:38;;;;;;;4.03;1.57;;;;;;;30.72;51.01;100972.75;2004502;71;21030;-62
2022/07/24 05:37:07;;;;;;;4.37;1.40;;;;;;;30.82;49.55;100979.25;2007351;71;21011;-62
2022/07/24 05:39:37;;;;;;;2.98;1.70;;;;;;;30.71;49.20;100975.98;2007250;71;21505;-62
2022/07/24 05:42:06;;;;;;;2.52;1.60;;;;;;;30.81;49.05;100986.58;2007248;71;21056;-62
2022/07/24 05:44:37;;;;;;;2.37;1.72;;;;;;;31.05;48.68;100980.56;2007259;71;20994;-63
2022/07/24 05:47:06;;;;;;;4.15;1.50;;;;;;;31.33;48.49;100983.42;2007360;71;21452;-62
2022/07/24 05:49:35;;;;;;;5.97;1.52;;;;;;;31.58;48.15;100980.38;2007356;71;21080;-62
2022/07/24 05:52:04;;;;;;;1.57;1.40;;;;;;;31.71;47.67;100987.34;2007365;71;21461;-62
2022/07/24 05:54:33;;;;;;;2.37;1.42;;;;;;;31.85;47.25;100980.97;2007538;71;20998;-62
2022/07/24 05:57:01;;;;;;;2.83;1.80;;;;;;;31.85;46.16;100980.97;2007147;70;21014;-63
2022/07/24 05:59:30;;;;;;;2.90;1.95;;;;;;;31.91;45.91;100981.58;2007253;71;21591;-63
2022/07/24 06:01:59;;;;;;;2.92;2.10;;;;;;;32.21;45.44;100976.53;2007251;71;20991;-62
2022/07/24 06:04:29;;;;;;;3.20;2.08;;;;;;;32.52;43.59;100981.59;2007375;71;21452;-63
2022/07/24 06:06:58;;;;;;;3.15;1.62;;;;;;;32.52;43.59;100981.59;2007514;70;21027;-62
2022/07/24 06:09:26;;;;;;;2.62;1.32;;;;;;;32.53;43.46;100983.79;2007489;70;21007;-62
2022/07/24 06:11:55;;;;;;;2.50;1.77;;;;;;;32.61;42.98;100962.72;2007402;71;21126;-62
2022/07/24 06:14:24;;;;;;;2.72;1.65;;;;;;;32.85;42.83;100970.06;2007489;71;21007;-62
2022/07/24 06:16:52;;;;;;;2.62;1.50;;;;;;;33.12;42.48;100967.52;2007562;71;21491;-63
2022/07/24 06:19:21;;;;;;;2.15;1.65;;;;;;;33.29;42.07;100962.00;2007508;70;21092;-63
2022/07/24 06:21:49;;;;;;;4.95;1.85;;;;;;;33.37;41.34;100963.20;2007460;71;21019;-63
2022/07/24 06:24:18;;;;;;;4.70;1.70;;;;;;;33.47;41.02;100970.45;2007477;71;21076;-63
2022/07/24 06:26:47;;;;;;;2.12;1.90;;;;;;;33.57;40.64;100963.27;2007490;71;21006;-63
2022/07/24 06:29:15;;;;;;;2.62;1.50;;;;;;;33.47;40.15;100962.80;2007591;71;21479;-63
2022/07/24 06:31:45;;;;;;;2.85;1.50;;;;;;;33.67;40.29;100962.05;2007461;71;21080;-62
2022/07/24 06:34:13;;;;;;;1.82;1.52;;;;;;;33.90;39.97;100957.05;1988409;70;21053;-62
2022/07/24 06:36:42;;;;;;;3.90;2.00;;;;;;;34.16;39.75;100963.55;1964673;73;21163;-64
2022/07/24 06:39:11;;;;;;;2.72;1.98;;;;;;;33.80;39.66;100960.17;1964778;73;21448;-62
2022/07/24 06:41:39;;;;;;;2.98;2.00;;;;;;;32.92;39.86;100953.22;1964723;73;21001;-62
2022/07/24 06:44:09;;;;;;;4.42;2.42;;;;;;;31.99;40.45;100952.53;1963788;73;21098;-62
2022/07/24 06:46:38;;;;;;;3.83;2.75;;;;;;;31.17;41.07;100958.13;1964797;73;20998;-62
2022/07/24 06:49:07;;;;;;;3.52;2.70;;;;;;;30.44;41.71;100953.00;1964673;73;21091;-63
2022/07/24 06:51:35;;;;;;;5.03;2.83;;;;;;;29.77;42.29;100953.22;1964771;72;21185;-62
2022/07/24 07:08:32;;;;;;;3.20;1.90;;;;;;;33.33;36.42;100937.38;1973585;72;22124;-62
2022/07/24 07:11:00;;;;;;;2.27;1.72;;;;;;;32.74;37.39;100940.14;1948908;73;21008;-60
2022/07/24 07:13:29;;;;;;;6.55;2.05;;;;;;;32.06;38.20;100881.30;1948784;73;21043;-60
2022/07/24 07:15:57;;;;;;;5.10;2.20;;;;;;;32.30;38.66;100921.70;1948897;73;21509;-62
2022/07/24 07:18:26;;;;;;;2.95;1.90;;;;;;;32.98;38.48;100926.52;1949027;73;21024;-62
2022/07/24 07:20:55;;;;;;;3.98;2.12;;;;;;;33.57;37.91;100925.55;1948917;73;21036;-62
2022/07/24 07:23:27;;;;;;;3.30;2.17;;;;;;;34.06;37.47;100932.55;1948953;73;21031;-60
2022/07/24 07:28:43;;;;;;;2.20;1.75;;;;;;;35.02;36.97;100913.35;1958871;73;26046;-58
2022/07/24 07:31:13;;;;;;;2.33;1.60;;;;;;;35.32;35.63;100921.87;1918208;75;21016;-58
2022/07/24 07:33:41;;;;;;;5.17;3.02;;;;;;;34.74;35.32;100926.82;1918393;75;21044;-58
2022/07/24 07:36:10;;;;;;;3.15;2.00;;;;;;;33.81;36.07;100920.91;1918347;75;21028;-59
2022/07/24 07:38:39;;;;;;;2.80;1.80;;;;;;;32.98;36.78;100915.61;1918235;75;21043;-58
2022/07/24 07:41:08;;;;;;;4.62;2.02;;;;;;;32.34;37.26;100913.13;1918341;75;21093;-58
2022/07/24 07:43:36;;;;;;;2.20;1.80;;;;;;;31.74;37.66;100918.39;1918227;74;21024;-58
2022/07/24 07:46:06;;;;;;;4.35;2.40;;;;;;;31.21;38.42;100922.38;1918237;75;21509;-58
2022/07/24 07:48:35;;;;;;;3.72;2.02;;;;;;;30.65;39.22;100916.93;1918317;75;21164;-58
2022/07/24 07:51:03;;;;;;;4.08;1.95;;;;;;;30.11;39.92;100923.92;1918130;75;21259;-59
2022/07/24 07:53:32;;;;;;;4.33;1.92;;;;;;;29.68;40.44;100923.55;1918355;75;21042;-58
2022/07/24 07:56:01;;;;;;;2.60;1.70;;;;;;;29.30;41.03;100924.84;1918235;75;21032;-58
2022/07/24 07:58:29;;;;;;;5.92;2.00;;;;;;;29.02;41.47;100918.52;1918199;75;21466;-58
2022/07/24 08:00:58;;;;;;;2.35;1.90;;;;;;;28.76;41.93;100920.98;1918221;75;21025;-58
2022/07/24 08:03:27;;;;;;;3.37;2.30;;;;;;;29.23;42.23;100922.85;1918153;75;21044;-59
2022/07/24 08:05:55;;;;;;;4.75;2.72;;;;;;;30.49;41.73;100915.75;1918327;75;21063;-58
2022/07/24 08:08:24;;;;;;;3.72;2.05;;;;;;;31.80;40.57;100912.68;1918185;75;21031;-58
2022/07/24 08:10:52;;;;;;;3.47;1.65;;;;;;;32.74;39.02;100902.47;1918194;75;21458;-58
2022/07/24 08:13:21;;;;;;;2.25;1.47;;;;;;;33.66;38.04;100903.86;1918220;75;21034;-58
2022/07/24 08:15:49;;;;;;;3.52;1.80;;;;;;;34.26;37.11;100903.05;1918233;75;21028;-59
2022/07/24 08:18:18;;;;;;;3.33;1.75;;;;;;;34.63;36.17;100897.92;1918210;75;21031;-59
2022/07/24 08:20:47;;;;;;;2.65;1.90;;;;;;;35.23;36.07;100899.92;1918227;74;21587;-59
2022/07/24 08:23:15;;;;;;;2.67;2.20;;;;;;;35.89;35.42;100896.41;1918405;75;21160;-59
2022/07/24 08:25:44;;;;;;;2.67;2.25;;;;;;;36.37;34.38;100897.13;1918221;75;21023;-58
2022/07/24 08:28:12;;;;;;;4.03;2.30;;;;;;;36.43;34.20;100895.38;1921397;74;21129;-58
2022/07/24 08:30:41;;;;;;;4.53;2.75;;;;;;;35.56;34.66;100902.95;1925281;74;21031;-59
2022/07/24 08:33:09;;;;;;;4.30;1.90;;;;;;;34.56;35.35;100904.77;1925257;74;21102;-59
2022/07/24 08:35:38;;;;;;;2.60;1.85;;;;;;;34.35;35.82;100904.51;1925246;74;21478;-58
2022/07/24 08:38:07;;;;;;;7.37;4.65;;;;;;;33.78;36.60;100904.09;1925173;74;21101;-58
2022/07/24 08:40:39;;;;;;;3.17;2.60;;;;;;;33.78;36.60;100904.09;1924606;74;21070;-57
2022/07/24 08:43:10;;;;;;;2.50;1.90;;;;;;;33.21;36.33;100904.38;1924576;74;21047;-58
2022/07/24 08:45:41;;;;;;;3.17;1.98;;;;;;;32.83;36.67;100901.26;1924585;74;21016;-58
2022/07/24 08:48:11;;;;;;;6.08;1.95;;;;;;;32.41;36.66;100897.67;1924662;74;21031;-58
2022/07/24 08:50:42;;;;;;;5.08;2.15;;;;;;;32.41;36.66;100897.67;1924736;74;21449;-58
2022/07/24 08:53:11;;;;;;;4.25;2.20;;;;;;;31.97;37.19;100901.52;1925056;74;21548;-58
2022/07/24 08:55:39;;;;;;;2.80;1.90;;;;;;;31.69;37.71;100898.23;1924621;74;21094;-58
2022/07/24 08:58:08;;;;;;;5.17;1.95;;;;;;;31.31;38.02;100901.99;1924574;74;21093;-57
2022/07/24 09:00:37;;;;;;;3.45;1.85;;;;;;;30.82;38.42;100903.14;1924817;74;21032;-58
2022/07/24 09:03:06;;;;;;;2.52;1.80;;;;;;;30.35;38.85;100914.20;1924631;74;21086;-58
2022/07/24 09:05:36;;;;;;;3.58;1.80;;;;;;;29.93;39.43;100922.37;1924576;74;21007;-58
2022/07/24 09:08:16;;;;;;;3.80;1.87;;;;;;;29.40;40.46;100922.73;1922147;74;21027;-58
2022/07/24 09:11:06;;;;;;;5.17;2.27;;;;;;;28.91;42.25;100920.26;1924683;74;21102;-58
2022/07/24 09:16:25;;;;;;;3.02;2.40;;;;;;;27.93;44.30;100897.77;1924430;74;21020;-59
2022/07/24 09:19:07;;;;;;;2.70;1.87;;;;;;;27.65;44.86;100885.89;1924675;74;21031;-58
2022/07/24 09:21:38;;;;;;;3.83;2.58;;;;;;;27.23;46.12;100894.92;1924637;74;21528;-58
2022/07/24 09:24:20;;;;;;;10.50;2.17;;;;;;;26.92;46.95;100900.05;1924569;74;21509;-58
2022/07/24 09:26:51;;;;;;;5.75;2.30;;;;;;;26.53;48.24;100906.75;1924489;74;21456;-59
2022/07/24 09:29:23;;;;;;;2.85;2.25;;;;;;;26.12;50.03;100899.75;1912416;74;21155;-59
2022/07/24 09:32:03;;;;;;;3.20;2.10;;;;;;;25.75;51.81;100896.73;1905254;75;21045;-58
2022/07/24 09:34:34;;;;;;;5.10;2.55;;;;;;;25.55;52.59;100895.20;1905145;75;21532;-58
2022/07/24 09:37:09;;;;;;;3.50;1.80;;;;;;;25.63;53.28;100919.02;1904926;74;21028;-58
2022/07/24 09:39:38;;;;;;;4.35;1.80;;;;;;;26.51;52.02;100907.42;1905291;75;21000;-58
2022/07/24 09:42:08;;;;;;;2.50;1.70;;;;;;;27.36;50.36;100904.45;1905279;75;21033;-58
2022/07/24 09:44:37;;;;;;;3.35;1.62;;;;;;;27.34;49.57;100908.15;1905284;74;21114;-58
2022/07/24 09:47:14;;;;;;;3.77;2.17;;;;;;;27.15;49.53;100901.16;1905232;75;21153;-58
2022/07/24 09:49:43;;;;;;;3.33;2.17;;;;;;;26.99;50.03;100889.45;1905007;75;21024;-58
2022/07/24 09:52:17;;;;;;;2.70;2.00;;;;;;;26.49;50.84;100895.94;1905252;75;21024;-58
2022/07/24 09:54:48;;;;;;;4.72;2.58;;;;;;;26.28;51.37;100881.96;1905225;75;21060;-58
2022/07/24 09:57:20;;;;;;;3.67;1.85;;;;;;;26.52;51.66;100880.78;1905152;75;21025;-59
2022/07/24 09:59:57;;;;;;;4.67;1.98;;;;;;;27.25;50.56;100890.19;1905271;75;21478;-59
2022/07/24 10:02:28;;;;;;;3.15;2.00;;;;;;;27.28;49.65;100885.84;1905110;75;21115;-59
2022/07/24 10:04:59;;;;;;;4.90;2.22;;;;;;;27.30;49.54;100900.03;1905172;75;21036;-60
2022/07/24 10:07:29;;;;;;;4.55;1.70;;;;;;;27.09;49.90;100884.22;1905289;74;21032;-59
2022/07/24 10:10:00;;;;;;;6.08;1.87;;;;;;;26.89;50.16;100896.31;1905258;75;21025;-59
2022/07/24 10:12:31;;;;;;;3.95;1.85;;;;;;;26.67;50.91;100890.98;1905231;75;21032;-61
2022/07/24 10:15:02;;;;;;;4.08;1.65;;;;;;;26.59;51.05;100880.45;1905118;75;21172;-60
2022/07/24 10:17:42;;;;;;;2.85;1.95;;;;;;;26.40;51.73;100887.45;1905251;75;21024;-60
2022/07/24 10:20:12;;;;;;;4.75;2.42;;;;;;;26.28;52.14;100889.58;1905170;75;21489;-59
2022/07/24 10:22:44;;;;;;;3.30;2.17;;;;;;;26.19;52.54;100883.75;1905433;75;21040;-59
2022/07/24 10:25:16;;;;;;;3.92;1.85;;;;;;;26.14;52.46;100877.50;1903699;74;21507;-60
2022/07/24 10:27:47;;;;;;;2.17;1.60;;;;;;;26.07;52.50;100875.09;1905243;75;21439;-60
2022/07/24 10:30:16;;;;;;;1.98;1.55;;;;;;;26.24;52.38;100871.15;1905046;74;21564;-60
2022/07/24 10:32:46;;;;;;;2.62;1.90;;;;;;;26.67;51.58;100871.59;1905147;75;21099;-59
2022/07/24 10:35:18;;;;;;;3.17;2.15;;;;;;;27.22;51.11;100867.53;1905181;75;21090;-59
2022/07/24 10:37:58;;;;;;;3.22;1.60;;;;;;;27.78;50.06;100863.75;1905042;75;21075;-60
2022/07/24 10:40:49;;;;;;;6.75;2.47;;;;;;;28.19;49.16;100862.89;1905143;75;21028;-59
2022/07/24 10:43:20;;;;;;;2.12;1.90;;;;;;;28.35;48.04;100854.73;1905264;75;21462;-59
2022/07/24 10:46:00;;;;;;;3.12;1.77;;;;;;;28.46;46.43;100847.58;1905157;75;21094;-59
2022/07/24 10:48:32;;;;;;;1.80;1.50;;;;;;;28.31;46.64;100860.13;1905163;75;21020;-59
2022/07/24 10:51:05;;;;;;;2.10;1.40;;;;;;;28.33;46.88;100855.41;1905181;75;21021;-59
2022/07/24 10:53:40;;;;;;;3.65;1.60;;;;;;;28.40;46.68;100856.38;1905260;75;21549;-60
2022/07/24 10:56:23;;;;;;;3.85;1.77;;;;;;;28.41;46.54;100847.77;1905142;75;21510;-59
2022/07/24 10:59:12;;;;;;;2.45;1.75;;;;;;;28.21;46.26;100841.38;1905152;75;21036;-59
2022/07/24 11:01:44;;;;;;;4.50;2.10;;;;;;;28.07;46.54;100837.54;1902215;75;21468;-59
2022/07/24 11:04:24;;;;;;;4.70;1.85;;;;;;;27.87;46.67;100841.08;1905126;75;21098;-59
2022/07/24 11:06:56;;;;;;;2.15;1.82;;;;;;;27.85;46.86;100840.90;1905027;75;21510;-60
2022/07/24 11:09:27;;;;;;;3.17;1.42;;;;;;;27.83;47.14;100832.11;1905138;75;21490;-60
2022/07/24 11:11:58;;;;;;;2.17;1.80;;;;;;;27.79;47.74;100838.37;1905118;75;21482;-59
2022/07/24 11:14:42;;;;;;;2.10;1.40;;;;;;;27.76;47.43;100835.16;1905088;75;21526;-60
2022/07/24 11:17:39;;;;;;;1.98;1.57;;;;;;;27.49;47.73;100835.34;1905126;75;21005;-60
2022/07/24 11:20:16;;;;;;;2.08;1.52;;;;;;;27.24;48.12;100843.91;1905259;75;21119;-60
2022/07/24 11:22:50;;;;;;;2.00;1.45;;;;;;;26.98;49.02;100832.35;1905142;74;21490;-60
2022/07/24 11:25:27;;;;;;;4.75;1.85;;;;;;;26.70;49.56;100846.11;1905146;75;21024;-59
2022/07/24 11:28:12;;;;;;;4.00;1.90;;;;;;;26.47;50.41;100848.01;1905100;75;21135;-60
2022/07/24 11:30:46;;;;;;;3.12;1.90;;;;;;;26.50;50.69;100846.31;1916793;74;21031;-60
2022/07/24 11:33:20;;;;;;;4.12;2.02;;;;;;;26.58;50.55;100850.42;1924696;74;21028;-59
2022/07/24 11:35:49;;;;;;;3.55;1.92;;;;;;;26.64;50.57;100852.17;1924470;74;21028;-59
2022/07/24 11:38:18;;;;;;;4.83;2.20;;;;;;;26.51;50.63;100845.32;1924387;74;21519;-60
2022/07/24 11:40:47;;;;;;;2.45;1.77;;;;;;;26.39;51.36;100838.50;1924479;74;21144;-59
2022/07/24 11:43:15;;;;;;;3.08;1.57;;;;;;;26.35;51.73;100839.32;1924507;74;21032;-59
2022/07/24 11:45:47;;;;;;;3.42;1.80;;;;;;;26.42;51.30;100843.59;1924518;74;21138;-59
2022/07/24 11:48:22;;;;;;;3.87;1.95;;;;;;;26.45;51.13;100835.17;1923931;74;21501;-59
2022/07/24 11:50:50;;;;;;;2.67;1.40;;;;;;;26.48;50.74;100837.53;1924585;74;21093;-59
2022/07/24 11:53:19;;;;;;;6.22;2.10;;;;;;;26.51;50.53;100833.17;1924580;74;21027;-59
2022/07/24 11:55:48;;;;;;;4.03;1.80;;;;;;;26.54;50.44;100838.26;1924481;74;21012;-59
2022/07/24 11:58:19;;;;;;;1.82;1.60;;;;;;;26.66;50.37;100836.64;1924508;74;21514;-59